Ashton, Illinois
Current Conditions -  °F | °C
As of 2:55 AM on Wednesday 28 Jan 2015 (Local Time) from KRPJ Reporting Station
Overcast Overcast  
Wind Chill: -11°   Ceiling: 2000
Heat Index: -6°   Visibility: 10mi
Dew Point: -8°   Wind: 7mph
Humidity: 87%   Direction: 150°SSE
Pressure: 30.25"   Gusts: NA
Location:  41.87°N, 89.22°W
Report Text: KRPJ 280855Z AUTO 15006KT 10SM OVC020 M06/M08 A3025 RMK AO2 T10621081
Loading
Personal Weather Stations






























Interactive Weather Map New forecast layout! Learn more

10-Day Weather Forecast

Advertisements
Track Severe Weather on mobile